createdAt,value
2022-11-29T00:00:25.109Z,83.29
2022-11-29T00:01:25.102Z,83.49
2022-11-29T00:02:25.190Z,83.49
2022-11-29T00:03:25.206Z,83.49
2022-11-29T00:04:25.754Z,83.49
2022-11-29T00:05:25.148Z,82.98
2022-11-29T00:06:25.072Z,83.49
2022-11-29T00:07:25.122Z,83.79
2022-11-29T00:08:25.028Z,83.89
2022-11-29T00:09:25.011Z,83.89
2022-11-29T00:10:25.040Z,83.09
2022-11-29T00:11:25.020Z,83.25
2022-11-29T00:12:25.004Z,83.25
2022-11-29T00:13:24.962Z,82.54
2022-11-29T00:14:25.014Z,82.64
2022-11-29T00:15:25.791Z,82.75
2022-11-29T00:16:24.966Z,82.45
2022-11-29T00:17:25.043Z,82.54
2022-11-29T00:18:25.565Z,82.54
2022-11-29T00:19:25.454Z,82.64
2022-11-29T00:20:24.954Z,82.95
2022-11-29T00:21:25.786Z,82.75
2022-11-29T00:22:24.923Z,83.15
2022-11-29T00:23:24.976Z,82.84
2022-11-29T00:24:25.720Z,82.89
2022-11-29T00:25:24.831Z,82.48
2022-11-29T00:26:24.840Z,82.48
2022-11-29T00:27:24.793Z,82.38
2022-11-29T00:28:25.063Z,82.98
2022-11-29T00:29:24.820Z,83.18
2022-11-29T00:30:25.627Z,82.98
2022-11-29T00:31:24.777Z,83.09
2022-11-29T00:32:24.835Z,82.58
2022-11-29T00:33:25.500Z,82.68
2022-11-29T00:34:24.738Z,82.78
2022-11-29T00:35:24.748Z,82.18
2022-11-29T00:36:25.535Z,82.38
2022-11-29T00:37:24.708Z,82.48
2022-11-29T00:38:25.698Z,82.48
2022-11-29T00:39:24.677Z,81.58
2022-11-29T00:40:24.683Z,81.98
2022-11-29T00:41:24.740Z,81.38
2022-11-29T00:42:24.644Z,81.18
2022-11-29T00:43:26.181Z,81.27
2022-11-29T00:44:24.652Z,81.78
2022-11-29T00:45:25.234Z,81.48
2022-11-29T00:46:24.742Z,81.48
2022-11-29T00:47:25.488Z,81.58
2022-11-29T00:48:24.631Z,81.58
2022-11-29T00:49:24.692Z,82.28
2022-11-29T00:50:25.716Z,82.68
2022-11-29T00:51:25.594Z,81.78
2022-11-29T00:52:24.562Z,82.28
2022-11-29T00:53:24.614Z,82.58
2022-11-29T00:54:24.517Z,82.08
2022-11-29T00:55:24.526Z,81.88
2022-11-29T00:56:24.490Z,82.28
2022-11-29T00:57:24.498Z,82.48
2022-11-29T00:58:24.481Z,82.18
2022-11-29T00:59:24.507Z,81.78
2022-11-29T01:00:24.517Z,82.38
2022-11-29T01:01:24.502Z,82.28
2022-11-29T01:02:24.525Z,81.98
2022-11-29T01:03:24.420Z,82.18
2022-11-29T01:04:24.423Z,82.38
2022-11-29T01:05:24.431Z,81.88
2022-11-29T01:06:24.436Z,81.88
2022-11-29T01:07:24.513Z,82.08
2022-11-29T01:08:24.347Z,82.48
2022-11-29T01:09:24.403Z,82.48
2022-11-29T01:10:24.370Z,82.28
2022-11-29T01:11:24.428Z,82.18
2022-11-29T01:12:24.328Z,81.88
2022-11-29T01:13:24.382Z,82.62
2022-11-29T01:14:24.310Z,82.32
2022-11-29T01:15:24.294Z,82.62
2022-11-29T01:16:24.451Z,82.32
2022-11-29T01:17:24.320Z,81.72
2022-11-29T01:18:24.528Z,82.32
2022-11-29T01:19:24.388Z,82.52
2022-11-29T01:20:24.328Z,82.52
2022-11-29T01:21:24.237Z,83.03
2022-11-29T01:22:24.294Z,82.92
2022-11-29T01:23:24.249Z,83.03
2022-11-29T01:24:24.271Z,82.42
2022-11-29T01:25:24.209Z,83.03
2022-11-29T01:26:24.475Z,82.82
2022-11-29T01:27:24.236Z,82.82
2022-11-29T01:28:24.196Z,83.03
2022-11-29T01:29:24.192Z,83.03
2022-11-29T01:30:24.543Z,82.72
2022-11-29T01:31:24.215Z,82.72
2022-11-29T01:32:24.110Z,83.03
2022-11-29T01:33:24.112Z,82.72
2022-11-29T01:34:24.120Z,82.72
2022-11-29T01:35:24.135Z,82.82
2022-11-29T01:36:24.138Z,83.12
2022-11-29T01:37:24.145Z,83.12
2022-11-29T01:38:24.047Z,83.23
2022-11-29T01:39:24.775Z,83.12
2022-11-29T01:40:24.058Z,83.12
2022-11-29T01:41:24.068Z,83.03
2022-11-29T01:42:24.075Z,83.53
2022-11-29T01:43:23.974Z,83.33
2022-11-29T01:44:23.988Z,83.63
2022-11-29T01:45:24.036Z,83.43
2022-11-29T01:46:24.090Z,83.43
2022-11-29T01:47:23.981Z,83.23
2022-11-29T01:48:23.953Z,83.43
2022-11-29T01:49:23.956Z,83.23
2022-11-29T01:50:23.973Z,83.23
2022-11-29T01:51:23.905Z,83.83
2022-11-29T01:52:23.972Z,84.03
2022-11-29T01:53:24.021Z,84.03
2022-11-29T01:54:23.884Z,84.13
2022-11-29T01:55:23.938Z,83.73
2022-11-29T01:56:23.846Z,84.03
2022-11-29T01:57:23.922Z,84.33
2022-11-29T01:58:23.915Z,84.13
2022-11-29T01:59:23.920Z,84.03
2022-11-29T02:00:23.976Z,84.03
2022-11-29T02:01:23.788Z,83.83
2022-11-29T02:02:23.816Z,83.93
2022-11-29T02:03:23.855Z,83.93
2022-11-29T02:04:23.900Z,84.13
2022-11-29T02:05:23.858Z,84.03
2022-11-29T02:06:23.808Z,84.03
2022-11-29T02:07:23.845Z,83.73
2022-11-29T02:08:23.711Z,83.73
2022-11-29T02:09:23.738Z,83.93
2022-11-29T02:10:24.619Z,83.93
2022-11-29T02:11:23.744Z,84.13
2022-11-29T02:12:23.701Z,84.43
2022-11-29T02:13:23.659Z,84.33
2022-11-29T02:14:23.663Z,84.43
2022-11-29T02:15:23.666Z,84.33
2022-11-29T02:16:23.736Z,84.33
2022-11-29T02:17:23.685Z,84.13
2022-11-29T02:18:23.688Z,84.53
2022-11-29T02:19:23.651Z,84.63
2022-11-29T02:20:23.650Z,84.63
2022-11-29T02:21:23.603Z,84.94
2022-11-29T02:22:23.605Z,84.83
2022-11-29T02:23:23.574Z,84.63
2022-11-29T02:24:23.582Z,84.63
2022-11-29T02:25:23.587Z,84.83
2022-11-29T02:26:23.533Z,84.63
2022-11-29T02:27:23.543Z,85.14
2022-11-29T02:28:23.537Z,84.94
2022-11-29T02:29:23.508Z,85.03
2022-11-29T02:30:23.511Z,85.24
2022-11-29T02:31:23.467Z,85.14
2022-11-29T02:32:23.473Z,84.83
2022-11-29T02:33:23.563Z,84.94
2022-11-29T02:34:23.487Z,85.14
2022-11-29T02:35:23.454Z,85.44
2022-11-29T02:36:23.499Z,85.53
2022-11-29T02:37:23.404Z,85.24
2022-11-29T02:38:23.424Z,84.94
2022-11-29T02:39:23.473Z,85.33
2022-11-29T02:40:23.423Z,85.03
2022-11-29T02:41:23.385Z,85.33
2022-11-29T02:42:23.397Z,85.53
2022-11-29T02:43:23.347Z,85.14
2022-11-29T02:44:23.408Z,85.33
2022-11-29T02:45:23.358Z,85.53
2022-11-29T02:46:23.441Z,85.74
2022-11-29T02:47:23.331Z,85.64
2022-11-29T02:48:23.335Z,85.64
2022-11-29T02:49:23.343Z,85.44
2022-11-29T02:50:23.351Z,85.44
2022-11-29T02:51:23.359Z,85.44
2022-11-29T02:52:23.304Z,85.44
2022-11-29T02:53:23.264Z,85.33
2022-11-29T02:54:23.274Z,85.44
2022-11-29T02:55:23.278Z,85.94
2022-11-29T02:56:23.690Z,85.64
2022-11-29T02:57:23.395Z,85.64
2022-11-29T02:58:23.235Z,85.74
2022-11-29T02:59:23.220Z,85.84
2022-11-29T03:00:23.252Z,85.74
2022-11-29T03:01:23.217Z,85.64
2022-11-29T03:02:23.684Z,85.44
2022-11-29T03:03:23.277Z,85.64
2022-11-29T03:04:23.139Z,85.74
2022-11-29T03:05:23.242Z,85.64
2022-11-29T03:06:23.108Z,86.14
2022-11-29T03:07:23.277Z,85.94
2022-11-29T03:08:23.161Z,86.04
2022-11-29T03:09:23.125Z,86.24
2022-11-29T03:10:23.229Z,85.74
2022-11-29T03:11:25.074Z,85.74
2022-11-29T03:12:23.043Z,86.14
2022-11-29T03:13:23.155Z,85.94
2022-11-29T03:14:23.119Z,86.24
2022-11-29T03:15:23.023Z,86.14
2022-11-29T03:16:23.033Z,86.34
2022-11-29T03:17:22.974Z,86.24
2022-11-29T03:18:22.980Z,86.24
2022-11-29T03:19:22.978Z,86.34
2022-11-29T03:20:23.002Z,86.24
2022-11-29T03:21:22.941Z,86.20
2022-11-29T03:22:22.955Z,86.14
2022-11-29T03:23:22.949Z,85.74
2022-11-29T03:24:22.922Z,86.24
2022-11-29T03:25:22.973Z,85.90
2022-11-29T03:26:22.937Z,86.00
2022-11-29T03:27:22.940Z,86.24
2022-11-29T03:28:22.892Z,85.64
2022-11-29T03:29:22.924Z,85.64
2022-11-29T03:30:22.905Z,85.94
2022-11-29T03:31:22.943Z,86.04
2022-11-29T03:32:22.927Z,86.14
2022-11-29T03:33:22.922Z,86.74
2022-11-29T03:34:22.843Z,86.34
2022-11-29T03:35:22.832Z,86.34
2022-11-29T03:36:22.860Z,86.44
2022-11-29T03:37:22.810Z,86.34
2022-11-29T03:38:22.869Z,86.54
2022-11-29T03:39:22.757Z,86.04
2022-11-29T03:40:22.760Z,86.34
2022-11-29T03:41:22.765Z,86.34
2022-11-29T03:42:22.733Z,86.14
2022-11-29T03:43:22.793Z,86.24
2022-11-29T03:44:22.811Z,85.94
2022-11-29T03:45:22.728Z,85.94
2022-11-29T03:46:22.748Z,86.60
2022-11-29T03:47:22.664Z,86.50
2022-11-29T03:48:22.676Z,86.34
2022-11-29T03:49:22.680Z,86.24
2022-11-29T03:50:22.724Z,86.74
2022-11-29T03:51:22.636Z,86.34
2022-11-29T03:52:22.591Z,86.34
2022-11-29T03:53:22.602Z,86.34
2022-11-29T03:54:22.607Z,86.40
2022-11-29T03:55:22.673Z,86.20
2022-11-29T03:56:22.669Z,86.40
2022-11-29T03:57:22.590Z,86.40
2022-11-29T03:58:22.536Z,86.40
2022-11-29T03:59:22.534Z,86.40
2022-11-29T04:00:22.585Z,86.20
2022-11-29T04:01:22.653Z,86.10
2022-11-29T04:02:22.584Z,86.30
2022-11-29T04:03:22.527Z,86.30
2022-11-29T04:04:22.470Z,86.10
2022-11-29T04:05:22.480Z,86.10
2022-11-29T04:06:22.478Z,86.20
2022-11-29T04:07:22.496Z,86.20
2022-11-29T04:08:22.587Z,86.00
2022-11-29T04:09:22.445Z,86.20
2022-11-29T04:10:22.406Z,86.30
2022-11-29T04:11:22.405Z,86.10
2022-11-29T04:12:22.445Z,86.00
2022-11-29T04:13:22.450Z,86.20
2022-11-29T04:14:22.497Z,86.30
2022-11-29T04:15:22.361Z,86.40
2022-11-29T04:16:22.431Z,86.20
2022-11-29T04:17:22.353Z,85.90
2022-11-29T04:18:22.447Z,85.80
2022-11-29T04:19:22.421Z,85.90
2022-11-29T04:20:22.362Z,86.00
2022-11-29T04:21:22.303Z,86.00
2022-11-29T04:22:22.371Z,85.90
2022-11-29T04:23:22.383Z,86.10
2022-11-29T04:24:22.278Z,86.20
2022-11-29T04:25:22.395Z,86.40
2022-11-29T04:26:22.398Z,86.30
2022-11-29T04:27:22.298Z,86.50
2022-11-29T04:28:22.324Z,86.50
2022-11-29T04:29:22.257Z,86.54
2022-11-29T04:30:22.323Z,86.54
2022-11-29T04:31:22.319Z,86.65
2022-11-29T04:32:22.244Z,86.94
2022-11-29T04:33:22.183Z,86.74
2022-11-29T04:34:22.245Z,86.60
2022-11-29T04:35:22.165Z,86.50
2022-11-29T04:36:22.164Z,86.90
2022-11-29T04:37:22.182Z,86.80
2022-11-29T04:38:22.241Z,86.90
2022-11-29T04:39:22.118Z,86.90
2022-11-29T04:40:22.129Z,86.80
2022-11-29T04:41:22.156Z,86.70
2022-11-29T04:42:22.098Z,86.70
2022-11-29T04:43:22.171Z,86.30
2022-11-29T04:44:22.101Z,86.50
2022-11-29T04:45:22.082Z,86.60
2022-11-29T04:46:22.104Z,86.70
2022-11-29T04:47:22.069Z,86.40
2022-11-29T04:48:22.276Z,86.60
2022-11-29T04:49:22.086Z,87.10
2022-11-29T04:50:22.138Z,86.90
2022-11-29T04:51:21.995Z,86.80
2022-11-29T04:52:22.055Z,86.90
2022-11-29T04:53:22.005Z,87.01
2022-11-29T04:54:22.064Z,87.01
2022-11-29T04:55:29.275Z,86.70
2022-11-29T04:56:21.983Z,86.30
2022-11-29T04:57:21.931Z,86.70
2022-11-29T04:58:21.947Z,86.90
2022-11-29T04:59:21.974Z,87.01
2022-11-29T05:00:22.006Z,86.90
2022-11-29T05:01:22.055Z,86.80
2022-11-29T05:02:21.997Z,86.60
2022-11-29T05:03:21.873Z,86.40
2022-11-29T05:04:21.925Z,86.70
2022-11-29T05:05:22.653Z,86.80
2022-11-29T05:06:21.952Z,86.80
2022-11-29T05:07:21.997Z,86.70
2022-11-29T05:08:21.907Z,86.80
2022-11-29T05:09:21.802Z,86.80
2022-11-29T05:10:21.870Z,86.90
2022-11-29T05:11:26.477Z,86.80
2022-11-29T05:12:21.782Z,86.80
2022-11-29T05:13:21.788Z,86.70
2022-11-29T05:14:21.795Z,86.60
2022-11-29T05:15:21.710Z,86.80
2022-11-29T05:16:21.747Z,86.70
2022-11-29T05:17:21.716Z,86.70
2022-11-29T05:18:21.735Z,86.80
2022-11-29T05:19:21.684Z,86.70
2022-11-29T05:20:21.741Z,86.70
2022-11-29T05:21:21.696Z,86.50
2022-11-29T05:22:21.645Z,86.50
2022-11-29T05:23:21.655Z,86.50
2022-11-29T05:24:21.651Z,86.70
2022-11-29T05:25:21.661Z,86.90
2022-11-29T05:26:21.630Z,86.60
2022-11-29T05:27:21.575Z,86.50
2022-11-29T05:28:21.549Z,86.50
2022-11-29T05:29:21.558Z,86.50
2022-11-29T05:30:21.555Z,86.40
2022-11-29T05:31:21.578Z,86.50
2022-11-29T05:32:21.558Z,86.70
2022-11-29T05:33:21.510Z,86.60
2022-11-29T05:34:21.468Z,86.80
2022-11-29T05:35:21.615Z,86.80
2022-11-29T05:36:21.500Z,86.80
2022-11-29T05:37:21.480Z,87.10
2022-11-29T05:38:21.494Z,87.30
2022-11-29T05:39:21.455Z,87.01
2022-11-29T05:40:21.389Z,87.30
2022-11-29T05:41:21.460Z,87.10
2022-11-29T05:42:21.428Z,86.90
2022-11-29T05:43:21.373Z,86.70
2022-11-29T05:44:21.393Z,86.90
2022-11-29T05:45:21.381Z,86.30
2022-11-29T05:46:21.448Z,86.70
2022-11-29T05:47:21.359Z,87.10
2022-11-29T05:48:21.301Z,87.10
2022-11-29T05:49:21.317Z,87.41
2022-11-29T05:50:21.316Z,87.41
2022-11-29T05:51:21.320Z,87.10
2022-11-29T05:52:21.288Z,87.21
2022-11-29T05:53:21.339Z,86.90
2022-11-29T05:54:21.277Z,86.90
2022-11-29T05:55:21.221Z,87.21
2022-11-29T05:56:21.253Z,87.21
2022-11-29T05:57:21.303Z,87.01
2022-11-29T05:58:25.656Z,86.90
2022-11-29T05:59:21.271Z,86.90
2022-11-29T06:00:21.185Z,86.80
2022-11-29T06:01:21.223Z,87.01
2022-11-29T06:02:21.279Z,87.10
2022-11-29T06:03:21.248Z,86.40
2022-11-29T06:04:21.216Z,86.30
2022-11-29T06:05:21.187Z,86.60
2022-11-29T06:06:21.176Z,86.90
2022-11-29T06:07:21.216Z,86.90
2022-11-29T06:08:21.141Z,87.01
2022-11-29T06:09:21.203Z,85.90
2022-11-29T06:10:21.115Z,86.80
2022-11-29T06:11:21.120Z,87.01
2022-11-29T06:12:21.528Z,87.30
2022-11-29T06:13:21.072Z,87.10
2022-11-29T06:14:21.181Z,87.10
2022-11-29T06:15:21.086Z,87.10
2022-11-29T06:16:21.177Z,87.21
2022-11-29T06:17:20.990Z,87.21
2022-11-29T06:18:21.360Z,87.01
2022-11-29T06:19:21.032Z,87.21
2022-11-29T06:20:21.193Z,86.80
2022-11-29T06:21:20.969Z,87.01
2022-11-29T06:22:21.026Z,86.40
2022-11-29T06:23:20.933Z,86.40
2022-11-29T06:24:25.701Z,86.70
2022-11-29T06:25:20.948Z,86.70
2022-11-29T06:26:20.952Z,86.40
2022-11-29T06:27:20.918Z,86.10
2022-11-29T06:28:20.967Z,86.20
2022-11-29T06:29:20.872Z,86.40
2022-11-29T06:30:20.939Z,86.40
2022-11-29T06:31:20.974Z,86.60
2022-11-29T06:32:21.274Z,86.50
2022-11-29T06:33:20.873Z,86.40
2022-11-29T06:34:20.873Z,86.30
2022-11-29T06:35:20.874Z,86.10
2022-11-29T06:36:20.880Z,86.20
2022-11-29T06:37:20.887Z,86.30
2022-11-29T06:38:22.746Z,86.30
2022-11-29T06:39:20.896Z,86.20
2022-11-29T06:40:20.905Z,86.20
2022-11-29T06:41:20.806Z,86.60
2022-11-29T06:42:20.812Z,86.70
2022-11-29T06:43:20.784Z,86.80
2022-11-29T06:44:20.825Z,86.50
2022-11-29T06:45:20.831Z,86.60
2022-11-29T06:46:20.765Z,86.60
2022-11-29T06:47:20.733Z,86.50
2022-11-29T06:48:20.734Z,86.20
2022-11-29T06:49:20.741Z,86.70
2022-11-29T06:50:20.751Z,86.60
2022-11-29T06:51:20.871Z,86.50
2022-11-29T06:52:20.659Z,86.20
2022-11-29T06:53:20.643Z,86.10
2022-11-29T06:54:20.669Z,86.00
2022-11-29T06:55:20.676Z,86.00
2022-11-29T06:56:20.687Z,86.30
2022-11-29T06:57:20.706Z,86.50
2022-11-29T06:58:20.597Z,86.60
2022-11-29T06:59:20.602Z,86.70
2022-11-29T07:00:20.610Z,86.50
2022-11-29T07:01:20.644Z,86.50
2022-11-29T07:02:20.659Z,86.70
2022-11-29T07:03:20.629Z,86.50
2022-11-29T07:04:20.533Z,86.70
2022-11-29T07:05:20.573Z,86.50
2022-11-29T07:06:20.558Z,86.90
2022-11-29T07:07:20.626Z,86.80
2022-11-29T07:08:20.783Z,86.70
2022-11-29T07:09:20.565Z,86.70
2022-11-29T07:10:20.479Z,86.60
2022-11-29T07:11:20.484Z,86.70
2022-11-29T07:12:20.492Z,86.30
2022-11-29T07:13:20.508Z,86.30
2022-11-29T07:14:22.241Z,86.60
2022-11-29T07:15:20.510Z,86.60
2022-11-29T07:16:20.466Z,86.70
2022-11-29T07:17:20.421Z,86.70
2022-11-29T07:18:20.424Z,86.80
2022-11-29T07:19:20.420Z,87.01
2022-11-29T07:20:20.428Z,86.70
2022-11-29T07:21:20.449Z,87.10
2022-11-29T07:22:20.359Z,86.90
2022-11-29T07:23:20.362Z,86.90
2022-11-29T07:24:20.368Z,87.01
2022-11-29T07:25:20.365Z,86.90
2022-11-29T07:26:20.384Z,87.01
2022-11-29T07:27:20.334Z,87.01
2022-11-29T07:28:20.283Z,87.01
2022-11-29T07:29:20.294Z,86.90
2022-11-29T07:30:20.291Z,87.10
2022-11-29T07:31:20.304Z,87.01
2022-11-29T07:32:20.268Z,86.90
2022-11-29T07:33:20.329Z,86.80
2022-11-29T07:34:20.243Z,86.80
2022-11-29T07:35:20.229Z,87.01
2022-11-29T07:36:20.192Z,86.50
2022-11-29T07:37:20.256Z,86.30
2022-11-29T07:38:20.197Z,86.30
2022-11-29T07:39:20.208Z,86.40
2022-11-29T07:40:20.162Z,86.40
2022-11-29T07:41:20.113Z,86.30
2022-11-29T07:42:20.269Z,86.30
2022-11-29T07:43:20.130Z,85.39
2022-11-29T07:44:20.143Z,85.70
2022-11-29T07:45:20.208Z,86.30
2022-11-29T07:46:20.196Z,86.40
2022-11-29T07:47:20.208Z,85.90
2022-11-29T07:48:20.166Z,86.00
2022-11-29T07:49:20.208Z,85.90
2022-11-29T07:50:20.079Z,85.80
2022-11-29T07:51:20.131Z,86.00
2022-11-29T07:52:20.135Z,85.90
2022-11-29T07:53:20.172Z,86.00
2022-11-29T07:54:20.087Z,86.10
2022-11-29T07:55:20.057Z,85.90
2022-11-29T07:56:20.061Z,85.70
2022-11-29T07:57:20.066Z,86.00
2022-11-29T07:58:20.136Z,85.70
2022-11-29T07:59:20.073Z,85.50
2022-11-29T08:00:20.040Z,85.60
2022-11-29T08:01:20.051Z,85.80
2022-11-29T08:02:19.982Z,85.39
2022-11-29T08:03:19.851Z,85.70
2022-11-29T08:04:19.859Z,85.90
2022-11-29T08:05:19.904Z,85.90
2022-11-29T08:06:19.876Z,86.00
2022-11-29T08:07:19.941Z,85.94
2022-11-29T08:08:20.762Z,85.90
2022-11-29T08:09:19.943Z,85.84
2022-11-29T08:10:19.861Z,85.74
2022-11-29T08:11:19.896Z,86.14
2022-11-29T08:12:19.811Z,86.34
2022-11-29T08:13:19.869Z,85.94
2022-11-29T08:14:19.905Z,86.34
2022-11-29T08:15:19.876Z,86.14
2022-11-29T08:16:19.943Z,86.34
2022-11-29T08:17:20.031Z,86.24
2022-11-29T08:18:19.840Z,86.44
2022-11-29T08:19:19.750Z,86.24
2022-11-29T08:20:19.830Z,86.54
2022-11-29T08:21:19.717Z,86.85
2022-11-29T08:22:19.736Z,86.54
2022-11-29T08:23:19.681Z,86.24
2022-11-29T08:24:19.806Z,86.04
2022-11-29T08:25:19.687Z,86.34
2022-11-29T08:26:19.749Z,86.44
2022-11-29T08:27:19.702Z,86.65
2022-11-29T08:28:19.605Z,86.54
2022-11-29T08:29:19.722Z,86.44
2022-11-29T08:30:19.684Z,86.54
2022-11-29T08:31:19.761Z,86.14
2022-11-29T08:32:19.691Z,86.34
2022-11-29T08:33:19.599Z,86.04
2022-11-29T08:34:19.612Z,86.08
2022-11-29T08:35:19.618Z,86.18
2022-11-29T08:36:19.560Z,86.08
2022-11-29T08:37:19.727Z,86.34
2022-11-29T08:38:19.628Z,86.94
2022-11-29T08:39:19.532Z,86.65
2022-11-29T08:40:19.550Z,86.54
2022-11-29T08:41:19.550Z,86.34
2022-11-29T08:42:20.167Z,86.24
2022-11-29T08:43:19.499Z,86.24
2022-11-29T08:44:19.507Z,86.24
2022-11-29T08:45:19.508Z,86.24
2022-11-29T08:46:19.572Z,86.34
2022-11-29T08:47:19.516Z,86.34
2022-11-29T08:48:19.529Z,86.34
2022-11-29T08:49:19.525Z,86.34
2022-11-29T08:50:19.434Z,85.94
2022-11-29T08:51:19.435Z,85.64
2022-11-29T08:52:19.441Z,85.64
2022-11-29T08:53:19.453Z,85.64
2022-11-29T08:54:19.458Z,86.24
2022-11-29T08:55:19.357Z,86.65
2022-11-29T08:58:19.382Z,85.94
2022-11-29T08:59:19.383Z,85.94
2022-11-29T09:00:19.402Z,85.84
2022-11-29T09:01:19.423Z,85.84
2022-11-29T09:02:19.391Z,86.65
2022-11-29T09:03:19.309Z,86.65
2022-11-29T09:04:19.276Z,86.24
2022-11-29T09:05:19.320Z,86.44
2022-11-29T09:06:19.329Z,86.65
2022-11-29T09:07:19.308Z,86.85
2022-11-29T09:08:19.238Z,86.65
2022-11-29T09:09:19.250Z,86.54
2022-11-29T09:10:19.252Z,86.54
2022-11-29T09:11:19.268Z,86.65
2022-11-29T09:12:19.274Z,86.94
2022-11-29T09:13:19.295Z,87.04
2022-11-29T09:14:19.173Z,86.44
2022-11-29T09:15:19.187Z,86.24
2022-11-29T09:16:19.218Z,86.44
2022-11-29T09:17:19.161Z,86.54
2022-11-29T09:18:19.170Z,86.54
2022-11-29T09:19:19.071Z,86.74
2022-11-29T09:20:19.078Z,86.74
2022-11-29T09:21:19.094Z,86.34
2022-11-29T09:22:19.192Z,86.34
2022-11-29T09:23:19.047Z,86.14
2022-11-29T09:24:19.104Z,86.14
2022-11-29T09:25:19.035Z,86.34
2022-11-29T09:26:19.115Z,86.85
2022-11-29T09:27:19.020Z,87.24
2022-11-29T09:28:19.058Z,87.35
2022-11-29T09:29:19.081Z,86.85
2022-11-29T09:30:23.552Z,86.24
2022-11-29T09:31:19.021Z,86.24
2022-11-29T09:32:19.054Z,85.84
2022-11-29T09:33:18.957Z,86.14
2022-11-29T09:34:19.065Z,86.24
2022-11-29T09:35:19.011Z,86.44
2022-11-29T09:36:22.577Z,86.54
2022-11-29T09:37:18.884Z,86.44
2022-11-29T09:38:19.240Z,86.44
2022-11-29T09:39:18.892Z,85.64
2022-11-29T09:40:18.841Z,85.53
2022-11-29T09:41:18.956Z,85.74
2022-11-29T09:42:18.917Z,86.24
2022-11-29T09:43:18.857Z,86.24
2022-11-29T09:44:18.969Z,86.20
2022-11-29T09:45:18.875Z,86.40
2022-11-29T09:46:18.884Z,86.50
2022-11-29T09:47:18.990Z,85.90
2022-11-29T09:48:18.871Z,85.50
2022-11-29T09:49:18.758Z,86.00
2022-11-29T09:50:18.822Z,85.60
2022-11-29T09:51:18.790Z,84.69
2022-11-29T09:52:18.785Z,84.59
2022-11-29T09:53:18.739Z,85.30
2022-11-29T09:54:19.038Z,85.50
2022-11-29T09:55:18.737Z,85.50
2022-11-29T09:56:18.847Z,85.50
2022-11-29T09:57:18.803Z,85.80
2022-11-29T09:58:18.737Z,86.30
2022-11-29T09:59:18.740Z,86.20
2022-11-29T10:00:18.776Z,85.30
2022-11-29T10:01:18.663Z,85.10
2022-11-29T10:02:21.583Z,85.30
2022-11-29T10:03:18.692Z,85.39
2022-11-29T10:04:18.702Z,84.69
2022-11-29T10:05:19.293Z,84.80
2022-11-29T10:06:18.685Z,85.46
2022-11-29T10:07:18.785Z,85.05
2022-11-29T10:08:18.626Z,85.05
2022-11-29T10:09:18.534Z,84.75
2022-11-29T10:10:18.670Z,83.75
2022-11-29T10:11:18.548Z,83.75
2022-11-29T10:12:18.516Z,84.45
2022-11-29T10:13:18.525Z,84.25
2022-11-29T10:14:18.540Z,84.55
2022-11-29T10:15:18.538Z,84.15
2022-11-29T10:16:18.671Z,84.45
2022-11-29T10:17:19.264Z,83.75
2022-11-29T10:18:18.566Z,83.35
2022-11-29T10:19:18.475Z,83.25
2022-11-29T10:20:18.522Z,83.75
2022-11-29T10:21:18.417Z,84.95
2022-11-29T10:22:18.496Z,83.55
2022-11-29T10:23:18.495Z,83.41
2022-11-29T10:24:18.510Z,83.61
2022-11-29T10:25:18.498Z,83.45
2022-11-29T10:26:18.401Z,83.61
2022-11-29T10:27:18.356Z,83.61
2022-11-29T10:28:18.395Z,83.91
2022-11-29T10:29:18.368Z,83.41
2022-11-29T10:30:18.448Z,83.21
2022-11-29T10:31:18.384Z,83.21
2022-11-29T10:32:18.440Z,82.60
2022-11-29T10:33:18.289Z,82.81
2022-11-29T10:34:18.350Z,82.90
2022-11-29T10:35:18.340Z,82.90
2022-11-29T10:36:18.354Z,83.51
2022-11-29T10:37:18.362Z,83.91
2022-11-29T10:38:33.737Z,82.10
2022-11-29T10:39:18.268Z,82.00
2022-11-29T10:40:18.235Z,82.37
2022-11-29T10:41:18.278Z,82.67
2022-11-29T10:42:18.291Z,82.46
2022-11-29T10:43:18.206Z,82.46
2022-11-29T10:44:18.306Z,82.06
2022-11-29T10:45:18.214Z,81.96
2022-11-29T10:46:18.249Z,82.06
2022-11-29T10:47:18.225Z,81.36
2022-11-29T10:48:18.236Z,81.67
2022-11-29T10:49:18.149Z,82.12
2022-11-29T10:50:18.157Z,82.23
2022-11-29T10:51:18.100Z,82.32
2022-11-29T10:52:18.154Z,81.82
2022-11-29T10:53:18.163Z,81.52
2022-11-29T10:54:18.167Z,81.12
2022-11-29T10:55:18.081Z,81.73
2022-11-29T10:56:18.020Z,82.12
2022-11-29T10:57:18.019Z,81.52
2022-11-29T10:58:20.893Z,81.42
2022-11-29T10:59:18.731Z,81.02
2022-11-29T11:00:18.112Z,81.02
2022-11-29T11:01:18.015Z,81.02
2022-11-29T11:02:18.011Z,81.62
2022-11-29T11:03:18.018Z,82.32
2022-11-29T11:04:17.966Z,82.23
2022-11-29T11:05:18.111Z,82.09
2022-11-29T11:06:17.978Z,82.79
2022-11-29T11:07:17.967Z,81.99
2022-11-29T11:08:17.956Z,82.09
2022-11-29T11:09:17.898Z,81.09
2022-11-29T11:10:17.901Z,80.88
2022-11-29T11:11:17.899Z,80.98
2022-11-29T11:12:17.886Z,81.48
2022-11-29T11:13:17.881Z,81.09
2022-11-29T11:14:17.835Z,80.68
2022-11-29T11:15:17.834Z,81.59
2022-11-29T11:16:18.001Z,81.68
2022-11-29T11:17:17.855Z,81.68
2022-11-29T11:18:17.815Z,80.88
2022-11-29T11:19:17.821Z,80.88
2022-11-29T11:20:17.827Z,80.38
2022-11-29T11:21:17.863Z,79.58
2022-11-29T11:22:17.854Z,78.88
2022-11-29T11:23:17.782Z,79.78
2022-11-29T11:24:17.745Z,79.38
2022-11-29T11:25:17.768Z,79.64
2022-11-29T11:26:17.772Z,80.35
2022-11-29T11:27:17.708Z,80.65
2022-11-29T11:28:17.774Z,80.85
2022-11-29T11:29:17.726Z,80.85
2022-11-29T11:30:17.692Z,80.24
2022-11-29T11:31:17.711Z,79.54
2022-11-29T11:32:17.733Z,79.24
2022-11-29T11:33:17.715Z,79.64
2022-11-29T11:34:17.652Z,79.21
2022-11-29T11:35:18.612Z,79.10
2022-11-29T11:36:17.665Z,79.10
2022-11-29T11:37:17.775Z,78.20
2022-11-29T11:38:17.649Z,78.41
2022-11-29T11:39:17.583Z,79.71
2022-11-29T11:40:17.746Z,78.91
2022-11-29T11:41:17.566Z,77.94
2022-11-29T11:42:17.552Z,78.04
2022-11-29T11:43:17.581Z,78.34
2022-11-29T11:44:45.625Z,78.24
2022-11-29T11:45:17.601Z,78.44
2022-11-29T11:46:18.224Z,79.34
2022-11-29T11:47:17.501Z,79.04
2022-11-29T11:48:17.542Z,78.80
2022-11-29T11:49:17.524Z,78.30
2022-11-29T11:50:17.846Z,78.10
2022-11-29T11:51:17.475Z,78.30
2022-11-29T11:52:17.483Z,77.20
2022-11-29T11:53:17.447Z,77.60
2022-11-29T11:54:17.468Z,76.76
2022-11-29T11:55:17.467Z,77.67
2022-11-29T11:56:17.475Z,76.37
2022-11-29T11:57:17.457Z,76.37
2022-11-29T11:58:17.472Z,76.37
2022-11-29T11:59:17.614Z,76.37
2022-11-29T12:00:34.442Z,77.73
2022-11-29T12:01:17.404Z,77.53
2022-11-29T12:02:19.392Z,77.23
2022-11-29T12:03:18.153Z,76.33
2022-11-29T12:04:17.440Z,76.93
2022-11-29T12:05:17.263Z,76.03
2022-11-29T12:06:17.337Z,76.03
2022-11-29T12:07:17.379Z,75.49
2022-11-29T12:08:17.910Z,75.59
2022-11-29T12:09:17.354Z,75.39
2022-11-29T12:10:17.345Z,74.19
2022-11-29T12:11:17.287Z,74.09
2022-11-29T12:12:17.264Z,73.99
2022-11-29T12:13:17.365Z,75.26
2022-11-29T12:14:17.282Z,75.16
2022-11-29T12:15:17.311Z,73.75
2022-11-29T12:16:17.337Z,73.96
2022-11-29T12:17:20.185Z,73.86
2022-11-29T12:18:17.198Z,73.86
2022-11-29T12:19:17.217Z,72.86
2022-11-29T12:20:17.317Z,72.06
2022-11-29T12:21:17.841Z,73.16
2022-11-29T12:22:17.234Z,73.06
2022-11-29T12:23:17.138Z,72.96
2022-11-29T12:24:17.254Z,73.36
2022-11-29T12:25:17.158Z,72.76
2022-11-29T12:26:48.506Z,73.12
2022-11-29T12:27:17.203Z,72.52
2022-11-29T12:28:20.548Z,72.22
2022-11-29T12:29:17.681Z,71.83
2022-11-29T12:30:17.080Z,71.52
2022-11-29T12:31:17.106Z,71.52
2022-11-29T12:32:17.069Z,72.92
2022-11-29T12:33:17.097Z,73.12
2022-11-29T12:34:22.005Z,71.79
2022-11-29T12:35:18.938Z,71.19
2022-11-29T12:36:17.020Z,71.26
2022-11-29T12:37:17.018Z,71.75
2022-11-29T12:38:17.045Z,68.93
2022-11-29T12:39:17.036Z,69.13
2022-11-29T12:40:16.952Z,69.62
2022-11-29T12:41:16.968Z,71.09
2022-11-29T12:42:16.953Z,70.79
2022-11-29T12:43:16.942Z,70.95
2022-11-29T12:44:17.433Z,68.56
2022-11-29T12:45:16.976Z,67.07
2022-11-29T12:46:17.014Z,69.02
2022-11-29T12:48:17.608Z,66.91
2022-11-29T12:49:16.898Z,68.20
2022-11-29T12:50:16.904Z,66.11
2022-11-29T12:51:16.914Z,65.71
2022-11-29T12:52:16.927Z,66.67
2022-11-29T12:53:16.826Z,67.27
2022-11-29T12:54:16.837Z,66.57
2022-11-29T12:55:17.054Z,63.59